Time;durP1;ratioP1;P1;durP2;ratioP2;P2;SDS_P1;SDS_P2;PMS_P1;PMS_P2;Temp;Humidity;BMP_temperature;BMP_pressure;BME280_temperature;BME280_humidity;BME280_pressure;Samples;Min_cycle;Max_cycle;Signal;HPM_P1;HPM_P2
2022/05/20 00:03:08;;;;;;;7.00;2.70;;;;;;;14.74;45.23;100080.52;213782;1274;140596;-63
2022/05/20 00:08:11;;;;;;;2.00;1.80;;;;;;;14.64;45.34;100079.02;213489;1274;141371;-64
2022/05/20 00:13:13;;;;;;;5.70;2.50;;;;;;;14.55;45.53;100079.05;213926;1274;141419;-64
2022/05/20 00:18:17;;;;;;;3.80;1.80;;;;;;;14.40;45.98;100073.02;212905;1274;140682;-63
2022/05/20 00:23:20;;;;;;;3.10;2.40;;;;;;;14.26;46.12;100062.75;213350;1274;139747;-64
2022/05/20 00:28:26;;;;;;;4.00;2.50;;;;;;;14.08;46.42;100053.06;214679;1274;140921;-63
2022/05/20 00:33:29;;;;;;;2.30;1.70;;;;;;;13.95;46.97;100047.96;214072;1274;141591;-64
2022/05/20 00:38:32;;;;;;;3.60;2.10;;;;;;;13.86;47.07;100045.48;215140;1274;142556;-64
2022/05/20 00:43:42;;;;;;;4.60;2.50;;;;;;;13.78;47.12;100041.27;213600;1274;140157;-64
2022/05/20 00:48:50;;;;;;;3.10;1.80;;;;;;;13.72;47.71;100041.15;214191;1274;143920;-63
2022/05/20 00:53:56;;;;;;;;;;;;;;;13.67;48.27;100047.88;213830;1274;139696;-66
2022/05/20 00:58:59;;;;;;;5.80;2.30;;;;;;;13.61;48.88;100048.33;215701;1274;127632;-64
2022/05/20 01:04:03;;;;;;;6.20;2.00;;;;;;;13.55;49.03;100038.70;214947;1274;140689;-64
2022/05/20 01:09:04;;;;;;;2.70;1.80;;;;;;;13.48;49.24;100038.34;214759;1274;140356;-66
2022/05/20 01:14:08;;;;;;;2.00;1.50;;;;;;;13.39;48.99;100030.98;215522;1274;139808;-64
2022/05/20 01:19:16;;;;;;;2.60;1.60;;;;;;;13.35;49.03;100033.82;215932;1274;141633;-65
2022/05/20 01:24:19;;;;;;;5.60;2.00;;;;;;;13.40;49.11;100038.66;215980;1274;141556;-65
2022/05/20 01:29:21;;;;;;;2.20;1.80;;;;;;;13.45;48.83;100024.58;215955;1274;139674;-65
2022/05/20 01:34:24;;;;;;;2.30;1.80;;;;;;;13.50;48.82;100034.86;214814;1274;139832;-64
2022/05/20 01:39:27;;;;;;;2.40;1.80;;;;;;;13.56;48.69;100048.58;213541;1274;141224;-63
2022/05/20 01:45:01;;;;;;;2.00;1.60;;;;;;;13.57;48.74;100041.73;215089;1274;161494;-65
2022/05/20 01:50:10;;;;;;;6.70;2.10;;;;;;;13.55;48.58;100037.30;214863;1274;139920;-65
2022/05/20 01:55:16;;;;;;;6.30;2.60;;;;;;;13.52;48.93;100026.83;213713;1274;140611;-65
2022/05/20 02:00:21;;;;;;;2.70;1.40;;;;;;;13.50;48.90;100020.58;214393;1274;140234;-63
2022/05/20 02:05:37;;;;;;;2.80;1.80;;;;;;;13.51;48.69;100021.98;214095;1274;139610;-64
2022/05/20 02:10:46;;;;;;;2.80;1.40;;;;;;;13.55;48.54;100020.91;214275;1274;139591;-65
2022/05/20 02:15:59;;;;;;;4.00;2.30;;;;;;;13.54;48.74;100018.44;213417;1274;139806;-65
2022/05/20 02:21:09;;;;;;;1.50;1.40;;;;;;;13.55;48.61;100017.05;214578;1274;143052;-67
2022/05/20 02:26:19;;;;;;;1.50;1.40;;;;;;;13.54;48.42;100024.27;213304;1274;144142;-67
2022/05/20 02:31:28;;;;;;;2.10;1.90;;;;;;;13.52;48.63;100023.54;213476;1274;204815;-65
2022/05/20 02:36:34;;;;;;;3.00;2.00;;;;;;;13.46;48.62;100022.13;213431;1274;141148;-66
2022/05/20 02:41:38;;;;;;;3.20;1.70;;;;;;;13.41;48.71;100016.25;213490;1274;143836;-65
2022/05/20 02:46:46;;;;;;;4.50;2.00;;;;;;;13.36;48.85;100009.04;214057;1274;143088;-65
2022/05/20 02:51:49;;;;;;;9.20;2.10;;;;;;;13.32;49.08;100007.15;214125;1274;141486;-65
2022/05/20 02:56:52;;;;;;;7.00;1.90;;;;;;;13.24;48.66;99991.98;214615;1274;141090;-66
2022/05/20 03:07:17;;;;;;;4.20;2.40;;;;;;;13.10;49.09;99989.73;214795;1274;140934;-66
2022/05/20 03:12:20;;;;;;;3.00;2.40;;;;;;;13.06;49.27;100000.70;216126;1274;140873;-66
2022/05/20 03:17:24;;;;;;;2.60;1.30;;;;;;;13.05;49.26;99996.35;216078;1274;142639;-66
2022/05/20 03:22:26;;;;;;;4.90;2.10;;;;;;;13.06;49.14;99993.94;215857;1274;140997;-66
2022/05/20 03:27:30;;;;;;;2.80;1.20;;;;;;;13.15;49.48;99993.71;215732;1274;139611;-66
2022/05/20 03:32:33;;;;;;;1.80;1.20;;;;;;;13.34;49.27;99982.73;215197;1274;141094;-68
2022/05/20 03:37:35;;;;;;;9.00;2.00;;;;;;;13.48;49.03;99986.00;214024;1274;140788;-65
2022/05/20 03:42:38;;;;;;;5.60;2.20;;;;;;;13.57;49.35;99986.27;214648;1274;154366;-67
2022/05/20 03:47:41;;;;;;;6.70;2.40;;;;;;;13.70;49.42;99981.05;213371;1274;140910;-66
2022/05/20 03:52:44;;;;;;;1.20;1.20;;;;;;;13.88;49.31;99978.47;213585;1274;141345;-67
2022/05/20 03:57:47;;;;;;;4.30;1.50;;;;;;;14.23;48.95;99988.20;214350;1274;143220;-65
2022/05/20 04:02:53;;;;;;;12.70;2.70;;;;;;;14.50;48.72;99978.61;213186;1274;140183;-64
2022/05/20 04:07:56;;;;;;;;;;;;;;;14.58;48.44;99982.61;214790;1274;140951;-67
2022/05/20 04:12:59;;;;;;;1.60;1.60;;;;;;;14.64;48.40;99993.13;214137;1275;127080;-65
2022/05/20 04:18:02;;;;;;;7.10;1.70;;;;;;;15.13;48.26;99995.80;213707;1274;142738;-65
2022/05/20 04:23:05;;;;;;;4.40;1.40;;;;;;;15.66;47.96;99994.37;214521;1274;143265;-65
2022/05/20 04:28:08;;;;;;;1.60;1.50;;;;;;;15.85;47.69;99996.94;213223;1275;141277;-66
2022/05/20 04:33:12;;;;;;;4.70;2.00;;;;;;;16.42;47.29;99998.55;214341;1276;142065;-65
2022/05/20 04:38:16;;;;;;;4.70;2.00;;;;;;;16.94;46.77;99995.21;213801;1274;140781;-66
2022/05/20 04:48:46;;;;;;;4.50;1.80;;;;;;;16.82;46.52;99995.05;213980;1274;234327;-65
2022/05/20 04:59:10;;;;;;;11.30;2.50;;;;;;;16.75;47.12;99997.39;215618;1274;139736;-65
2022/05/20 05:04:13;;;;;;;2.50;2.10;;;;;;;16.83;47.16;99999.20;213482;1274;140196;-66
2022/05/20 05:09:16;;;;;;;3.50;2.10;;;;;;;16.98;47.32;100006.48;214476;1274;141720;-67
2022/05/20 05:14:19;;;;;;;6.60;2.10;;;;;;;17.14;47.20;100004.30;215785;1274;140049;-65
2022/05/20 05:19:22;;;;;;;3.40;1.70;;;;;;;17.21;47.38;99998.04;216170;1274;140253;-65
2022/05/20 05:24:25;;;;;;;3.40;1.80;;;;;;;17.31;47.67;99997.60;215406;1274;139960;-65
2022/05/20 05:29:29;;;;;;;2.00;1.90;;;;;;;17.50;47.63;100003.20;213810;1274;139558;-66
2022/05/20 05:34:33;;;;;;;3.90;1.70;;;;;;;17.73;47.73;100011.14;214696;1274;140517;-64
2022/05/20 05:39:37;;;;;;;6.10;3.00;;;;;;;17.98;47.78;100013.43;214307;1274;140029;-65
2022/05/20 05:44:40;;;;;;;6.50;2.50;;;;;;;18.18;47.81;100020.89;214800;1274;140694;-65
2022/05/20 05:49:44;;;;;;;1.90;1.80;;;;;;;18.39;47.74;100028.43;214625;1274;139783;-65
2022/05/20 05:54:47;;;;;;;2.60;2.40;;;;;;;18.66;47.72;100030.23;214785;1274;140346;-67
2022/05/20 05:59:51;;;;;;;15.80;4.00;;;;;;;19.07;47.41;100028.41;214682;1274;140748;-65
2022/05/20 06:04:54;;;;;;;2.30;2.20;;;;;;;19.35;47.18;100030.95;213697;1274;139899;-64
2022/05/20 06:10:00;;;;;;;3.90;2.30;;;;;;;19.63;47.17;100033.02;214061;1274;140310;-64
2022/05/20 06:15:06;;;;;;;6.80;3.00;;;;;;;20.10;46.90;100024.34;213740;1274;143150;-64
2022/05/20 06:20:11;;;;;;;5.20;3.60;;;;;;;20.42;46.43;100013.31;213349;1274;141159;-65
2022/05/20 06:25:15;;;;;;;6.30;3.60;;;;;;;20.92;46.33;100020.84;213378;1274;143001;-66
2022/05/20 06:30:20;;;;;;;4.70;3.30;;;;;;;21.16;45.59;100022.75;213793;1274;152579;-65
2022/05/20 06:40:49;;;;;;;6.60;3.10;;;;;;;20.85;45.25;100018.79;213347;1274;140934;-64
2022/05/20 06:45:56;;;;;;;4.80;3.60;;;;;;;20.74;45.61;100022.45;214246;1274;140951;-65
2022/05/20 06:51:28;;;;;;;3.90;3.10;;;;;;;20.60;45.89;100029.15;213002;1274;140602;-64
2022/05/20 06:56:36;;;;;;;5.00;2.60;;;;;;;20.51;46.04;100035.66;215260;1274;141047;-65
2022/05/20 07:01:39;;;;;;;3.40;3.10;;;;;;;20.76;46.33;100037.84;215501;1274;140275;-65
2022/05/20 07:07:05;;;;;;;4.40;4.00;;;;;;;21.32;46.26;100036.76;215657;1274;140044;-65
2022/05/20 07:12:09;;;;;;;3.30;3.00;;;;;;;21.59;45.72;100039.69;215735;1274;140718;-65
2022/05/20 07:17:20;;;;;;;3.60;2.60;;;;;;;21.58;45.70;100039.01;216110;1274;140651;-65
2022/05/20 07:22:24;;;;;;;4.20;3.80;;;;;;;21.40;45.58;100035.65;214548;1274;140306;-64
2022/05/20 07:27:30;;;;;;;8.30;4.10;;;;;;;21.26;45.79;100033.79;214146;1273;141192;-65
2022/05/20 07:32:35;;;;;;;6.20;3.50;;;;;;;21.20;46.26;100030.34;214964;1274;140848;-64
2022/05/20 07:37:39;;;;;;;5.60;3.60;;;;;;;21.27;46.44;100028.08;214273;1274;141376;-65
2022/05/20 07:42:41;;;;;;;4.20;3.90;;;;;;;21.23;46.80;100030.10;214011;1274;140428;-64
2022/05/20 07:47:45;;;;;;;3.90;3.70;;;;;;;21.21;46.98;100030.08;214174;1274;673319;-64
2022/05/20 07:58:20;;;;;;;3.80;3.50;;;;;;;21.35;47.70;100035.70;214280;1274;140045;-65
2022/05/20 08:09:06;;;;;;;4.50;3.90;;;;;;;22.37;47.54;100038.30;214288;1274;140333;-66
2022/05/20 08:14:12;;;;;;;4.40;4.00;;;;;;;22.60;47.24;100033.31;213994;1274;139866;-65
2022/05/20 08:19:15;;;;;;;4.60;4.10;;;;;;;22.74;47.10;100040.09;213418;1274;141257;-64
2022/05/20 08:24:19;;;;;;;5.90;4.20;;;;;;;22.81;47.00;100041.42;213484;1274;209638;-65
2022/05/20 08:29:22;;;;;;;4.50;3.70;;;;;;;22.82;46.95;100048.05;213474;1274;139793;-63
2022/05/20 08:36:57;;;;;;;6.80;3.50;;;;;;;23.21;47.42;100048.54;213879;1313;683429;-65
2022/05/20 08:42:01;;;;;;;4.00;3.50;;;;;;;24.17;47.79;100043.15;213441;1287;138475;-66
2022/05/20 08:47:28;;;;;;;3.90;3.40;;;;;;;25.00;47.52;100038.92;212436;1286;350727;-65
2022/05/20 08:52:33;;;;;;;3.80;3.50;;;;;;;25.65;46.47;100035.80;213514;1285;139077;-66
2022/05/20 08:57:43;;;;;;;5.70;3.90;;;;;;;25.93;46.21;100037.39;212691;1286;154461;-65
2022/05/20 09:02:46;;;;;;;4.90;4.20;;;;;;;26.22;46.01;100032.86;213275;1286;139399;-65
2022/05/20 09:08:03;;;;;;;3.30;3.00;;;;;;;26.33;45.02;100019.61;211864;1286;140644;-65
2022/05/20 09:13:09;;;;;;;8.90;3.00;;;;;;;26.61;45.03;100015.14;213356;1285;138771;-65
2022/05/20 09:18:41;;;;;;;2.80;2.60;;;;;;;27.02;44.89;100010.76;212283;1286;140085;-64
2022/05/20 09:23:51;;;;;;;4.40;2.70;;;;;;;27.22;43.97;100005.05;214669;1276;140786;-65
2022/05/20 09:29:22;;;;;;;6.70;3.20;;;;;;;27.34;42.92;100009.13;213587;1277;141051;-64
2022/05/20 09:34:53;;;;;;;6.30;2.90;;;;;;;27.49;42.82;100009.35;213670;1277;140022;-64
2022/05/20 09:39:57;;;;;;;5.80;3.10;;;;;;;27.62;42.81;100011.77;214591;1276;138856;-65
2022/05/20 09:45:03;;;;;;;6.00;3.40;;;;;;;27.75;42.66;100006.52;214276;1277;140976;-64
2022/05/20 09:50:31;;;;;;;3.40;2.90;;;;;;;27.76;42.14;99999.42;213789;1276;140149;-65
2022/05/20 09:55:43;;;;;;;6.80;3.10;;;;;;;27.83;42.33;100001.39;213302;1277;139279;-64
2022/05/20 10:01:26;;;;;;;8.80;3.40;;;;;;;28.07;42.24;99995.45;213632;1277;140227;-65
2022/05/20 10:06:40;;;;;;;4.50;2.60;;;;;;;28.24;41.78;99991.04;212529;1277;140174;-63
2022/05/20 10:12:12;;;;;;;4.20;3.00;;;;;;;28.34;41.80;99988.92;214484;1277;139890;-64
2022/05/20 10:17:42;;;;;;;3.00;2.30;;;;;;;28.58;41.76;99986.48;212973;1277;139791;-64
2022/05/20 10:22:55;;;;;;;2.70;2.50;;;;;;;28.63;41.21;99973.77;215064;1277;140021;-65
2022/05/20 10:28:06;;;;;;;2.50;2.40;;;;;;;28.59;41.10;99974.91;213461;1277;139717;-65
2022/05/20 10:33:17;;;;;;;4.10;2.70;;;;;;;28.77;40.71;99963.66;215918;1277;140723;-68
2022/05/20 10:38:44;;;;;;;1.80;1.70;;;;;;;28.87;40.56;99962.77;215248;1276;139078;-65
2022/05/20 10:50:08;;;;;;;4.70;1.70;;;;;;;29.03;39.40;99961.15;214752;1277;142783;-66
2022/05/20 10:55:22;;;;;;;4.60;2.00;;;;;;;29.27;39.02;99951.95;213287;1277;138790;-65
2022/05/20 11:00:55;;;;;;;4.60;1.50;;;;;;;29.41;38.63;99948.14;213776;1277;139586;-65
2022/05/20 11:06:38;;;;;;;2.80;2.10;;;;;;;29.50;38.45;99943.45;213286;1277;140724;-64
2022/05/20 11:11:56;;;;;;;2.50;1.90;;;;;;;29.81;38.21;99934.58;214193;1277;139821;-64
2022/05/20 11:17:10;;;;;;;1.70;1.60;;;;;;;29.93;37.39;99935.87;212953;1277;140252;-64
2022/05/20 11:22:43;;;;;;;6.20;2.40;;;;;;;30.05;37.14;99939.45;213782;1277;140480;-64
2022/05/20 11:28:04;;;;;;;3.00;1.80;;;;;;;29.88;36.62;99931.90;213287;1277;139138;-64
2022/05/20 11:33:15;;;;;;;1.80;1.70;;;;;;;29.83;36.52;99925.05;213126;1279;140730;-64
2022/05/20 11:38:28;;;;;;;1.90;1.80;;;;;;;29.85;36.72;99921.96;213596;1277;139919;-64
2022/05/20 11:43:45;;;;;;;3.00;1.90;;;;;;;29.76;36.40;99912.56;214547;1277;140911;-65
2022/05/20 11:49:22;;;;;;;1.80;1.70;;;;;;;29.64;36.30;99919.21;214397;1277;140603;-65
2022/05/20 11:54:46;;;;;;;2.50;1.80;;;;;;;29.47;36.21;99905.06;213785;1277;140242;-64
2022/05/20 12:00:10;;;;;;;1.50;1.40;;;;;;;29.40;36.38;99903.16;215358;1277;140318;-65
2022/05/20 12:05:19;;;;;;;3.10;2.10;;;;;;;29.37;35.83;99901.12;215247;1277;161013;-65
2022/05/20 12:10:32;;;;;;;2.00;1.80;;;;;;;29.43;35.67;99902.00;214681;1277;140291;-65
2022/05/20 12:15:46;;;;;;;1.80;1.70;;;;;;;29.52;35.69;99901.52;214167;1277;140127;-65
2022/05/20 12:26:19;;;;;;;4.00;2.20;;;;;;;29.43;35.19;99903.09;214007;1277;139977;-64
2022/05/20 12:31:32;;;;;;;5.60;2.80;;;;;;;29.21;34.96;99894.85;215329;1277;139762;-64
2022/05/20 12:36:45;;;;;;;2.10;1.90;;;;;;;29.05;35.20;99891.95;215005;1277;140503;-65
2022/05/20 12:41:48;;;;;;;2.60;2.30;;;;;;;29.02;35.48;99893.68;214986;1277;140059;-64
2022/05/20 12:47:15;;;;;;;2.80;2.40;;;;;;;28.75;35.09;99891.10;214761;1277;140706;-65
2022/05/20 12:52:25;;;;;;;2.90;2.30;;;;;;;28.76;34.95;99882.91;214048;1277;139955;-64
2022/05/20 12:57:34;;;;;;;2.40;2.30;;;;;;;28.40;34.86;99886.08;214497;1277;140343;-64
2022/05/20 13:02:46;;;;;;;2.30;2.10;;;;;;;28.44;35.25;99879.84;213233;1277;140377;-64
2022/05/20 13:07:54;;;;;;;4.20;2.30;;;;;;;28.78;35.36;99875.03;213510;1277;141977;-64
2022/05/20 13:13:06;;;;;;;2.20;2.10;;;;;;;29.03;35.16;99862.51;213725;1277;140478;-63
2022/05/20 13:18:23;;;;;;;3.00;1.80;;;;;;;29.12;34.04;99848.53;213437;1277;138848;-64
2022/05/20 13:23:34;;;;;;;2.40;2.30;;;;;;;29.02;33.88;99851.11;213361;1277;139955;-64
2022/05/20 13:28:38;;;;;;;2.50;2.20;;;;;;;28.86;33.82;99852.13;213316;1278;140111;-64
2022/05/20 13:33:44;;;;;;;6.90;2.80;;;;;;;28.68;33.60;99846.09;213093;1280;139282;-64
2022/05/20 13:38:58;;;;;;;2.90;2.70;;;;;;;28.68;33.69;99844.35;213415;1277;140448;-65
2022/05/20 13:44:05;;;;;;;1.90;1.80;;;;;;;28.68;33.83;99831.91;214046;1277;140286;-65
2022/05/20 13:49:22;;;;;;;2.30;2.20;;;;;;;28.62;33.77;99829.63;213617;1277;139966;-64
2022/05/20 13:54:38;;;;;;;4.30;2.10;;;;;;;28.41;33.42;99824.95;214326;1277;139001;-65
2022/05/20 13:59:42;;;;;;;2.60;2.40;;;;;;;28.28;33.48;99819.89;213250;1277;139627;-64
2022/05/20 14:04:49;;;;;;;2.40;2.20;;;;;;;28.26;33.58;99814.20;214453;1278;139201;-64
2022/05/20 14:10:16;;;;;;;3.00;2.70;;;;;;;28.19;33.21;99807.80;214431;1277;139365;-64
2022/05/20 14:15:40;;;;;;;6.70;3.20;;;;;;;28.07;33.13;99804.24;214710;1277;140284;-64
2022/05/20 14:20:50;;;;;;;5.40;3.10;;;;;;;28.02;33.19;99800.76;215720;1277;140054;-64
2022/05/20 14:26:01;;;;;;;2.20;2.10;;;;;;;28.00;33.11;99799.77;215718;1277;139779;-64
2022/05/20 14:31:04;;;;;;;3.80;2.30;;;;;;;27.93;32.13;99797.14;215819;1277;139235;-65
2022/05/20 14:36:14;;;;;;;2.40;2.10;;;;;;;27.73;32.15;99796.19;215536;1277;140165;-65
2022/05/20 14:41:25;;;;;;;5.50;2.40;;;;;;;27.61;32.11;99786.11;213852;1278;139212;-63
2022/05/20 14:47:15;;;;;;;3.60;2.20;;;;;;;27.63;32.10;99786.88;213332;1277;140660;-64
2022/05/20 14:52:28;;;;;;;2.90;2.70;;;;;;;27.57;32.13;99784.80;213206;1277;140948;-63
2022/05/20 14:57:35;;;;;;;4.80;2.60;;;;;;;27.55;32.32;99785.34;213715;1277;139991;-65
2022/05/20 15:02:43;;;;;;;4.40;3.20;;;;;;;27.58;32.58;99784.14;214631;1277;138738;-65
2022/05/20 15:08:08;;;;;;;6.10;2.60;;;;;;;27.53;32.83;99773.11;213663;1277;140328;-64
2022/05/20 15:13:16;;;;;;;4.10;2.80;;;;;;;27.51;33.01;99758.58;214099;1281;139120;-63
2022/05/20 15:18:21;;;;;;;2.60;2.40;;;;;;;27.40;33.27;99754.58;213527;1277;139911;-66
2022/05/20 15:23:34;;;;;;;4.10;2.40;;;;;;;27.31;33.56;99742.11;214104;1278;139048;-65
2022/05/20 15:28:53;;;;;;;5.30;2.90;;;;;;;27.18;33.60;99734.39;213947;1277;140507;-64
2022/05/20 15:39:30;;;;;;;2.70;2.50;;;;;;;27.11;34.00;99728.55;212968;1277;141797;-66
2022/05/20 15:44:35;;;;;;;2.60;2.40;;;;;;;27.07;34.18;99719.66;213335;1277;139171;-66
2022/05/20 15:49:38;;;;;;;5.20;3.20;;;;;;;27.03;34.35;99717.44;213126;1277;139066;-63
2022/05/20 15:54:51;;;;;;;4.00;2.80;;;;;;;27.04;34.57;99721.38;214439;1277;139168;-63
2022/05/20 15:59:55;;;;;;;3.20;3.00;;;;;;;26.93;34.56;99716.00;213351;1277;139203;-63
2022/05/20 16:10:26;;;;;;;3.40;2.90;;;;;;;26.62;34.31;99712.52;213077;1277;139631;-64
2022/05/20 16:15:37;;;;;;;7.20;2.90;;;;;;;26.55;34.56;99711.14;212928;1275;140913;-62
2022/05/20 16:20:44;;;;;;;3.50;2.60;;;;;;;26.45;34.74;99704.59;214557;1277;140104;-63
2022/05/20 16:25:58;;;;;;;2.80;2.60;;;;;;;26.40;34.52;99697.37;215342;1277;139687;-62
2022/05/20 16:31:01;;;;;;;2.80;2.60;;;;;;;26.27;34.63;99689.96;214402;1277;139286;-62
2022/05/20 16:36:06;;;;;;;6.40;3.00;;;;;;;26.16;34.63;99687.43;213645;1277;139302;-62
2022/05/20 16:41:12;;;;;;;3.20;2.90;;;;;;;26.06;34.70;99683.19;214380;1276;138952;-62
2022/05/20 16:46:27;;;;;;;2.40;2.30;;;;;;;25.83;34.70;99682.38;215598;1277;142590;-63
2022/05/20 16:51:33;;;;;;;7.10;2.50;;;;;;;25.65;34.94;99686.81;214809;1277;231417;-63
2022/05/20 17:02:11;;;;;;;3.50;3.20;;;;;;;25.28;35.84;99681.11;213819;1277;139726;-62
2022/05/20 17:07:14;;;;;;;2.80;2.60;;;;;;;25.19;36.26;99672.02;215383;1277;140288;-63
2022/05/20 17:12:20;;;;;;;4.10;3.10;;;;;;;25.06;36.42;99665.95;213917;1277;140347;-62
2022/05/20 17:17:22;;;;;;;5.30;3.40;;;;;;;24.93;36.82;99661.62;213083;1274;139118;-61
2022/05/20 17:27:49;;;;;;;3.50;3.20;;;;;;;24.66;37.26;99663.66;214184;1274;139239;-62
2022/05/20 17:32:52;;;;;;;3.80;2.40;;;;;;;24.44;37.06;99657.23;214299;1274;139136;-62
2022/05/20 17:37:55;;;;;;;5.00;3.00;;;;;;;24.28;36.94;99651.55;213870;1274;140236;-61
2022/05/20 17:42:59;;;;;;;4.70;3.10;;;;;;;24.09;36.75;99650.70;213174;1273;139483;-62
2022/05/20 17:48:03;;;;;;;3.60;2.90;;;;;;;23.96;37.01;99645.64;213475;1274;139059;-62
2022/05/20 17:53:08;;;;;;;3.70;2.80;;;;;;;23.86;37.20;99637.06;214744;1274;141475;-62
2022/05/20 17:58:12;;;;;;;3.30;3.10;;;;;;;23.75;37.51;99629.54;213485;1274;229778;-61
2022/05/20 18:03:16;;;;;;;7.90;3.80;;;;;;;23.61;37.74;99624.25;213566;1277;139977;-63
2022/05/20 18:08:20;;;;;;;3.70;3.40;;;;;;;23.46;37.86;99624.23;214591;1274;140118;-62
2022/05/20 18:13:25;;;;;;;7.50;2.70;;;;;;;23.33;38.27;99620.44;213396;1274;140727;-62
2022/05/20 18:18:29;;;;;;;5.80;4.40;;;;;;;23.18;38.67;99610.96;214159;1274;142175;-62
2022/05/20 18:23:34;;;;;;;3.80;3.50;;;;;;;23.04;39.03;99611.89;215019;1274;153239;-61
2022/05/20 18:28:38;;;;;;;5.90;5.00;;;;;;;22.84;39.38;99610.52;214237;1274;140715;-62
2022/05/20 18:33:41;;;;;;;3.60;3.30;;;;;;;22.70;40.09;99604.44;216086;1274;139443;-64
2022/05/20 18:44:28;;;;;;;5.30;3.10;;;;;;;22.37;41.05;99601.42;214281;1283;139907;-63
2022/05/20 18:49:38;;;;;;;3.80;3.60;;;;;;;22.16;41.37;99595.64;215284;1276;140241;-62
2022/05/20 18:54:52;;;;;;;5.70;3.90;;;;;;;21.98;41.90;99591.63;214431;1274;139396;-62
2022/05/20 19:00:01;;;;;;;5.20;4.50;;;;;;;21.72;42.42;99584.70;214333;1277;139596;-62
2022/05/20 19:05:07;;;;;;;10.20;4.50;;;;;;;21.46;43.05;99568.36;214758;1276;139373;-62
2022/05/20 19:10:14;;;;;;;3.70;3.40;;;;;;;21.20;44.06;99561.14;214639;1277;140105;-62
2022/05/20 19:15:20;;;;;;;3.90;3.60;;;;;;;20.93;44.50;99554.05;214264;1276;140110;-63
2022/05/20 19:20:26;;;;;;;3.40;3.20;;;;;;;20.62;45.20;99548.27;213290;1276;140349;-61
2022/05/20 19:25:30;;;;;;;4.00;3.50;;;;;;;20.21;46.22;99540.02;213833;1277;140541;-63
2022/05/20 19:30:36;;;;;;;8.20;4.50;;;;;;;19.74;47.14;99533.89;213937;1276;140469;-64
2022/05/20 19:35:41;;;;;;;4.90;4.50;;;;;;;19.21;47.74;99506.55;213381;1277;140496;-62
2022/05/20 19:40:47;;;;;;;4.50;4.10;;;;;;;18.77;48.35;99493.46;214694;1277;231980;-63
2022/05/20 19:45:50;;;;;;;6.80;4.70;;;;;;;18.56;49.49;99497.65;213728;1276;140675;-62
2022/05/20 19:50:56;;;;;;;11.70;4.50;;;;;;;18.55;49.97;99493.18;212863;1277;139610;-63
2022/05/20 19:56:01;;;;;;;5.20;3.90;;;;;;;18.43;50.45;99477.80;213015;1277;142813;-63
2022/05/20 20:01:05;;;;;;;6.80;4.00;;;;;;;18.23;50.95;99461.38;213197;1276;140719;-62
2022/05/20 20:06:15;;;;;;;5.20;4.60;;;;;;;17.95;51.66;99447.08;213956;1276;139618;-62
2022/05/20 20:11:22;;;;;;;6.30;5.70;;;;;;;17.64;52.09;99431.88;214139;1276;139933;-62
2022/05/20 20:16:26;;;;;;;6.60;6.00;;;;;;;17.48;52.62;99415.56;214585;1276;140505;-61
2022/05/20 20:27:11;;;;;;;13.00;6.40;;;;;;;17.33;53.56;99409.70;214577;1276;140520;-62
2022/05/20 20:32:15;;;;;;;6.20;5.70;;;;;;;17.19;53.92;99414.91;215518;1276;142074;-60
2022/05/20 20:37:20;;;;;;;8.40;6.10;;;;;;;17.09;54.44;99416.31;215819;1276;139439;-63
2022/05/20 20:42:30;;;;;;;7.70;6.50;;;;;;;16.92;54.56;99413.74;215493;1276;141525;-62
2022/05/20 20:47:35;;;;;;;9.10;6.20;;;;;;;16.74;55.04;99413.11;215750;1276;363711;-63
2022/05/20 20:52:39;;;;;;;8.80;7.20;;;;;;;16.70;55.78;99414.86;215325;1276;140169;-65
2022/05/20 20:57:43;;;;;;;10.80;7.10;;;;;;;16.64;55.92;99413.33;214889;1277;139765;-63
2022/05/20 21:02:46;;;;;;;15.50;8.10;;;;;;;16.56;56.03;99413.02;213041;1277;140800;-64
2022/05/20 21:07:53;;;;;;;14.00;8.50;;;;;;;16.43;56.41;99409.56;214940;1277;140232;-61
2022/05/20 21:13:03;;;;;;;13.40;8.20;;;;;;;16.50;56.64;99377.86;214164;1276;139694;-62
2022/05/20 21:18:11;;;;;;;11.00;7.20;;;;;;;16.56;57.08;99361.77;214105;1276;139540;-62
2022/05/20 21:23:19;;;;;;;15.30;7.60;;;;;;;16.60;57.40;99355.17;214123;1276;139836;-62
2022/05/20 21:28:25;;;;;;;13.60;9.70;;;;;;;16.66;57.72;99356.06;213223;1277;139443;-64
2022/05/20 21:33:30;;;;;;;11.40;9.10;;;;;;;16.66;57.74;99337.23;213507;1276;140610;-62
2022/05/20 21:38:35;;;;;;;15.20;9.90;;;;;;;16.71;57.80;99304.57;213726;1276;140285;-62
2022/05/20 21:43:40;;;;;;;14.10;10.30;;;;;;;16.77;58.14;99302.67;214013;1276;141184;-64
2022/05/20 21:48:46;;;;;;;16.40;10.60;;;;;;;16.81;57.95;99295.89;214486;1276;140225;-62
2022/05/20 21:53:52;;;;;;;15.00;10.20;;;;;;;16.88;58.06;99284.83;213027;1276;139836;-62
2022/05/20 21:58:56;;;;;;;20.50;10.40;;;;;;;16.91;58.59;99269.98;213967;1277;141162;-62
2022/05/20 22:09:24;;;;;;;25.20;11.50;;;;;;;16.92;59.57;99239.02;214242;1276;141044;-61
2022/05/20 22:14:30;;;;;;;11.60;9.60;;;;;;;16.98;60.26;99221.48;214898;1275;141236;-61
2022/05/20 22:19:33;;;;;;;10.40;9.10;;;;;;;16.98;60.55;99213.63;213311;1276;139211;-64
2022/05/20 22:24:37;;;;;;;10.50;8.60;;;;;;;16.85;60.23;99201.79;215226;1276;139629;-62
2022/05/20 22:29:42;;;;;;;19.30;9.60;;;;;;;16.79;60.33;99183.42;216007;1276;139868;-62
2022/05/20 22:34:46;;;;;;;12.50;8.30;;;;;;;16.77;60.66;99158.30;215804;1276;140513;-62
2022/05/20 22:39:51;;;;;;;15.60;8.30;;;;;;;16.79;60.80;99140.61;215913;1275;140142;-63
2022/05/20 22:44:56;;;;;;;14.70;7.00;;;;;;;16.87;60.96;99132.46;215733;1276;140180;-62
2022/05/20 22:50:00;;;;;;;10.00;8.10;;;;;;;16.98;61.33;99135.13;214662;1276;139937;-61
2022/05/20 23:00:29;;;;;;;9.50;8.50;;;;;;;16.99;62.69;99125.96;214329;1276;140821;-62
2022/05/20 23:05:34;;;;;;;9.50;8.40;;;;;;;17.05;63.46;99133.95;214181;1277;139880;-63
2022/05/20 23:10:38;;;;;;;13.10;10.20;;;;;;;17.12;63.99;99161.40;214160;1277;139733;-63
2022/05/20 23:15:47;;;;;;;11.40;8.00;;;;;;;17.12;64.40;99209.18;214769;1276;141369;-63
2022/05/20 23:20:50;;;;;;;;;;;;;;;17.04;64.64;99304.73;213859;1276;140808;-62
2022/05/20 23:25:59;;;;;;;21.50;12.10;;;;;;;16.87;65.06;99369.00;213834;1277;148929;-63
2022/05/20 23:31:05;;;;;;;20.00;13.00;;;;;;;16.66;65.64;99333.66;213281;1276;141233;-62
2022/05/20 23:36:11;;;;;;;;;;;;;;;16.51;66.23;99295.69;213231;1277;140885;-63
2022/05/20 23:41:14;;;;;;;15.40;10.50;;;;;;;16.36;66.93;99258.02;214306;1276;128146;-61
2022/05/20 23:46:17;;;;;;;12.20;9.80;;;;;;;16.32;67.45;99219.36;213416;1276;141241;-63
2022/05/20 23:51:23;;;;;;;11.80;9.70;;;;;;;16.38;67.89;99183.54;214789;1276;140709;-63
